sensor_id;sensor_type;location;lat;lon;timestamp;temperature;humidity
6293;DHT22;3179;54.350;10.102;2022-08-21T00:01:35;18.10;99.90
6293;DHT22;3179;54.350;10.102;2022-08-21T00:04:04;18.10;99.90
6293;DHT22;3179;54.350;10.102;2022-08-21T00:06:31;18.10;99.90
6293;DHT22;3179;54.350;10.102;2022-08-21T00:08:59;18.10;99.90
6293;DHT22;3179;54.350;10.102;2022-08-21T00:11:26;18.00;99.90
6293;DHT22;3179;54.350;10.102;2022-08-21T00:13:53;18.00;99.90
6293;DHT22;3179;54.350;10.102;2022-08-21T00:16:20;18.00;99.90
6293;DHT22;3179;54.350;10.102;2022-08-21T00:18:49;17.90;99.90
6293;DHT22;3179;54.350;10.102;2022-08-21T00:21:16;17.90;99.90
6293;DHT22;3179;54.350;10.102;2022-08-21T00:23:43;17.90;99.90
6293;DHT22;3179;54.350;10.102;2022-08-21T00:26:10;17.80;99.90
6293;DHT22;3179;54.350;10.102;2022-08-21T00:28:37;17.80;99.90
6293;DHT22;3179;54.350;10.102;2022-08-21T00:31:04;17.80;99.90
6293;DHT22;3179;54.350;10.102;2022-08-21T00:33:32;17.80;99.90
6293;DHT22;3179;54.350;10.102;2022-08-21T00:36:00;17.80;99.90
6293;DHT22;3179;54.350;10.102;2022-08-21T00:38:27;17.80;99.90
6293;DHT22;3179;54.350;10.102;2022-08-21T00:40:57;17.70;99.90
6293;DHT22;3179;54.350;10.102;2022-08-21T00:43:27;17.70;99.90
6293;DHT22;3179;54.350;10.102;2022-08-21T00:45:56;17.70;99.90
6293;DHT22;3179;54.350;10.102;2022-08-21T00:48:24;17.60;99.90
6293;DHT22;3179;54.350;10.102;2022-08-21T00:50:55;17.60;99.90
6293;DHT22;3179;54.350;10.102;2022-08-21T00:53:25;17.50;99.90
6293;DHT22;3179;54.350;10.102;2022-08-21T00:55:53;17.50;99.90
6293;DHT22;3179;54.350;10.102;2022-08-21T00:58:21;17.50;99.90
6293;DHT22;3179;54.350;10.102;2022-08-21T01:00:50;17.50;99.90
6293;DHT22;3179;54.350;10.102;2022-08-21T01:03:21;17.50;99.90
6293;DHT22;3179;54.350;10.102;2022-08-21T01:05:48;17.50;99.90
6293;DHT22;3179;54.350;10.102;2022-08-21T01:08:15;17.40;99.90
6293;DHT22;3179;54.350;10.102;2022-08-21T01:10:45;17.40;99.90
6293;DHT22;3179;54.350;10.102;2022-08-21T01:13:14;17.40;99.90
6293;DHT22;3179;54.350;10.102;2022-08-21T01:15:45;17.40;99.90
6293;DHT22;3179;54.350;10.102;2022-08-21T01:18:14;17.30;99.90
6293;DHT22;3179;54.350;10.102;2022-08-21T01:20:43;17.30;99.90
6293;DHT22;3179;54.350;10.102;2022-08-21T01:23:12;17.30;99.90
6293;DHT22;3179;54.350;10.102;2022-08-21T01:25:39;17.20;99.90
6293;DHT22;3179;54.350;10.102;2022-08-21T01:28:12;17.30;99.90
6293;DHT22;3179;54.350;10.102;2022-08-21T01:30:42;17.30;99.90
6293;DHT22;3179;54.350;10.102;2022-08-21T01:33:12;17.30;99.90
6293;DHT22;3179;54.350;10.102;2022-08-21T01:35:39;17.30;99.90
6293;DHT22;3179;54.350;10.102;2022-08-21T01:38:06;17.30;99.90
6293;DHT22;3179;54.350;10.102;2022-08-21T01:40:35;17.20;99.90
6293;DHT22;3179;54.350;10.102;2022-08-21T01:43:02;17.20;99.90
6293;DHT22;3179;54.350;10.102;2022-08-21T01:45:29;17.20;99.90
6293;DHT22;3179;54.350;10.102;2022-08-21T01:47:56;17.10;99.90
6293;DHT22;3179;54.350;10.102;2022-08-21T01:50:23;17.10;99.90
6293;DHT22;3179;54.350;10.102;2022-08-21T01:52:50;17.10;99.90
6293;DHT22;3179;54.350;10.102;2022-08-21T01:55:18;17.10;99.90
6293;DHT22;3179;54.350;10.102;2022-08-21T01:57:47;17.10;99.90
6293;DHT22;3179;54.350;10.102;2022-08-21T02:00:16;17.00;99.90
6293;DHT22;3179;54.350;10.102;2022-08-21T02:02:43;17.10;99.90
6293;DHT22;3179;54.350;10.102;2022-08-21T02:05:11;17.00;99.90
6293;DHT22;3179;54.350;10.102;2022-08-21T02:07:39;17.00;99.90
6293;DHT22;3179;54.350;10.102;2022-08-21T02:10:08;17.00;99.90
6293;DHT22;3179;54.350;10.102;2022-08-21T02:12:35;17.00;99.90
6293;DHT22;3179;54.350;10.102;2022-08-21T02:15:05;16.90;99.90
6293;DHT22;3179;54.350;10.102;2022-08-21T02:17:40;16.90;99.90
6293;DHT22;3179;54.350;10.102;2022-08-21T02:20:09;16.90;99.90
6293;DHT22;3179;54.350;10.102;2022-08-21T02:22:36;16.90;99.90
6293;DHT22;3179;54.350;10.102;2022-08-21T02:25:03;16.90;99.90
6293;DHT22;3179;54.350;10.102;2022-08-21T02:27:37;16.90;99.90
6293;DHT22;3179;54.350;10.102;2022-08-21T02:30:07;16.90;99.90
6293;DHT22;3179;54.350;10.102;2022-08-21T02:32:34;16.80;99.90
6293;DHT22;3179;54.350;10.102;2022-08-21T02:35:01;16.80;99.90
6293;DHT22;3179;54.350;10.102;2022-08-21T02:37:29;16.80;99.90
6293;DHT22;3179;54.350;10.102;2022-08-21T02:39:56;16.80;99.90
6293;DHT22;3179;54.350;10.102;2022-08-21T02:42:23;16.80;99.90
6293;DHT22;3179;54.350;10.102;2022-08-21T02:44:49;16.70;99.90
6293;DHT22;3179;54.350;10.102;2022-08-21T02:47:17;16.80;99.90
6293;DHT22;3179;54.350;10.102;2022-08-21T02:49:44;16.70;99.90
6293;DHT22;3179;54.350;10.102;2022-08-21T02:52:11;16.70;99.90
6293;DHT22;3179;54.350;10.102;2022-08-21T02:54:38;16.60;99.90
6293;DHT22;3179;54.350;10.102;2022-08-21T02:57:05;16.70;99.90
6293;DHT22;3179;54.350;10.102;2022-08-21T02:59:33;16.70;99.90
6293;DHT22;3179;54.350;10.102;2022-08-21T03:02:00;16.60;99.90
6293;DHT22;3179;54.350;10.102;2022-08-21T03:04:28;16.60;99.90
6293;DHT22;3179;54.350;10.102;2022-08-21T03:06:55;16.60;99.90
6293;DHT22;3179;54.350;10.102;2022-08-21T03:09:22;16.60;99.90
6293;DHT22;3179;54.350;10.102;2022-08-21T03:11:49;16.60;99.90
6293;DHT22;3179;54.350;10.102;2022-08-21T03:14:16;16.60;99.90
6293;DHT22;3179;54.350;10.102;2022-08-21T03:16:43;16.60;99.90
6293;DHT22;3179;54.350;10.102;2022-08-21T03:19:10;16.50;99.90
6293;DHT22;3179;54.350;10.102;2022-08-21T03:21:38;16.50;99.90
6293;DHT22;3179;54.350;10.102;2022-08-21T03:24:05;16.50;99.90
6293;DHT22;3179;54.350;10.102;2022-08-21T03:26:35;16.50;99.90
6293;DHT22;3179;54.350;10.102;2022-08-21T03:29:02;16.50;99.90
6293;DHT22;3179;54.350;10.102;2022-08-21T03:31:28;16.50;99.90
6293;DHT22;3179;54.350;10.102;2022-08-21T03:33:57;16.50;99.90
6293;DHT22;3179;54.350;10.102;2022-08-21T03:36:24;16.50;99.90
6293;DHT22;3179;54.350;10.102;2022-08-21T03:38:52;16.50;99.90
6293;DHT22;3179;54.350;10.102;2022-08-21T03:41:19;16.50;99.90
6293;DHT22;3179;54.350;10.102;2022-08-21T03:43:46;16.50;99.90
6293;DHT22;3179;54.350;10.102;2022-08-21T03:46:13;16.40;99.90
6293;DHT22;3179;54.350;10.102;2022-08-21T03:48:40;16.40;99.90
6293;DHT22;3179;54.350;10.102;2022-08-21T03:51:07;16.40;99.90
6293;DHT22;3179;54.350;10.102;2022-08-21T03:53:34;16.40;99.90
6293;DHT22;3179;54.350;10.102;2022-08-21T03:56:03;16.40;99.90
6293;DHT22;3179;54.350;10.102;2022-08-21T03:58:31;16.40;99.90
6293;DHT22;3179;54.350;10.102;2022-08-21T04:01:00;16.40;99.90
6293;DHT22;3179;54.350;10.102;2022-08-21T04:03:28;16.40;99.90
6293;DHT22;3179;54.350;10.102;2022-08-21T04:05:55;16.40;99.90
6293;DHT22;3179;54.350;10.102;2022-08-21T04:08:22;16.40;99.90
6293;DHT22;3179;54.350;10.102;2022-08-21T04:10:51;16.40;99.90
6293;DHT22;3179;54.350;10.102;2022-08-21T04:13:20;16.40;99.90
6293;DHT22;3179;54.350;10.102;2022-08-21T04:15:48;16.40;99.90
6293;DHT22;3179;54.350;10.102;2022-08-21T04:18:15;16.40;99.90
6293;DHT22;3179;54.350;10.102;2022-08-21T04:20:43;16.40;99.90
6293;DHT22;3179;54.350;10.102;2022-08-21T04:23:11;16.40;99.90
6293;DHT22;3179;54.350;10.102;2022-08-21T04:25:38;16.40;99.90
6293;DHT22;3179;54.350;10.102;2022-08-21T04:28:05;16.40;99.90
6293;DHT22;3179;54.350;10.102;2022-08-21T04:30:33;16.40;99.90
6293;DHT22;3179;54.350;10.102;2022-08-21T04:32:59;16.40;99.90
6293;DHT22;3179;54.350;10.102;2022-08-21T04:35:27;16.40;99.90
6293;DHT22;3179;54.350;10.102;2022-08-21T04:37:54;16.40;99.90
6293;DHT22;3179;54.350;10.102;2022-08-21T04:40:23;16.40;99.90
6293;DHT22;3179;54.350;10.102;2022-08-21T04:42:52;16.40;99.90
6293;DHT22;3179;54.350;10.102;2022-08-21T04:45:21;16.50;99.90
6293;DHT22;3179;54.350;10.102;2022-08-21T04:47:51;16.50;99.90
6293;DHT22;3179;54.350;10.102;2022-08-21T04:50:19;16.60;99.90
6293;DHT22;3179;54.350;10.102;2022-08-21T04:52:46;16.60;99.90
6293;DHT22;3179;54.350;10.102;2022-08-21T04:55:14;16.60;99.90
6293;DHT22;3179;54.350;10.102;2022-08-21T04:57:42;16.60;99.90
6293;DHT22;3179;54.350;10.102;2022-08-21T05:00:10;16.60;99.90
6293;DHT22;3179;54.350;10.102;2022-08-21T05:02:39;16.60;99.90
6293;DHT22;3179;54.350;10.102;2022-08-21T05:05:08;16.60;99.90
6293;DHT22;3179;54.350;10.102;2022-08-21T05:07:35;16.60;99.90
6293;DHT22;3179;54.350;10.102;2022-08-21T05:10:03;16.70;99.90
6293;DHT22;3179;54.350;10.102;2022-08-21T05:12:31;16.70;99.90
6293;DHT22;3179;54.350;10.102;2022-08-21T05:14:59;16.70;99.90
6293;DHT22;3179;54.350;10.102;2022-08-21T05:17:26;16.70;99.90
6293;DHT22;3179;54.350;10.102;2022-08-21T05:19:52;16.70;99.90
6293;DHT22;3179;54.350;10.102;2022-08-21T05:22:22;16.70;99.90
6293;DHT22;3179;54.350;10.102;2022-08-21T05:24:50;16.80;99.90
6293;DHT22;3179;54.350;10.102;2022-08-21T05:27:17;16.80;99.90
6293;DHT22;3179;54.350;10.102;2022-08-21T05:29:43;16.80;99.90
6293;DHT22;3179;54.350;10.102;2022-08-21T05:32:11;16.90;99.90
6293;DHT22;3179;54.350;10.102;2022-08-21T05:34:38;17.00;99.90
6293;DHT22;3179;54.350;10.102;2022-08-21T05:37:05;17.10;99.90
6293;DHT22;3179;54.350;10.102;2022-08-21T05:39:33;17.20;99.90
6293;DHT22;3179;54.350;10.102;2022-08-21T05:42:00;17.30;99.90
6293;DHT22;3179;54.350;10.102;2022-08-21T05:44:27;17.40;99.90
6293;DHT22;3179;54.350;10.102;2022-08-21T05:46:54;17.50;99.90
6293;DHT22;3179;54.350;10.102;2022-08-21T05:49:20;17.50;99.90
6293;DHT22;3179;54.350;10.102;2022-08-21T05:51:47;17.50;99.90
6293;DHT22;3179;54.350;10.102;2022-08-21T05:54:14;17.60;99.90
6293;DHT22;3179;54.350;10.102;2022-08-21T05:56:42;17.60;99.90
6293;DHT22;3179;54.350;10.102;2022-08-21T05:59:11;17.60;99.90
6293;DHT22;3179;54.350;10.102;2022-08-21T06:01:39;17.70;99.90
6293;DHT22;3179;54.350;10.102;2022-08-21T06:04:06;17.70;99.90
6293;DHT22;3179;54.350;10.102;2022-08-21T06:06:33;17.70;99.90
6293;DHT22;3179;54.350;10.102;2022-08-21T06:09:00;17.80;99.90
6293;DHT22;3179;54.350;10.102;2022-08-21T06:11:27;17.80;99.90
6293;DHT22;3179;54.350;10.102;2022-08-21T06:13:55;17.80;99.90
6293;DHT22;3179;54.350;10.102;2022-08-21T06:16:22;17.80;99.90
6293;DHT22;3179;54.350;10.102;2022-08-21T06:18:49;17.80;99.90
6293;DHT22;3179;54.350;10.102;2022-08-21T06:21:16;17.90;99.90
6293;DHT22;3179;54.350;10.102;2022-08-21T06:23:43;17.90;99.90
6293;DHT22;3179;54.350;10.102;2022-08-21T06:26:12;17.90;99.90
6293;DHT22;3179;54.350;10.102;2022-08-21T06:28:40;18.00;99.90
6293;DHT22;3179;54.350;10.102;2022-08-21T06:31:13;18.00;99.90
6293;DHT22;3179;54.350;10.102;2022-08-21T06:33:41;18.10;99.90
6293;DHT22;3179;54.350;10.102;2022-08-21T06:36:08;18.10;99.90
6293;DHT22;3179;54.350;10.102;2022-08-21T06:38:35;18.10;99.90
6293;DHT22;3179;54.350;10.102;2022-08-21T06:41:02;18.10;99.90
6293;DHT22;3179;54.350;10.102;2022-08-21T06:43:29;18.20;99.90
6293;DHT22;3179;54.350;10.102;2022-08-21T06:45:56;18.20;99.90
6293;DHT22;3179;54.350;10.102;2022-08-21T06:48:25;18.30;99.90
6293;DHT22;3179;54.350;10.102;2022-08-21T06:50:52;18.30;99.90
6293;DHT22;3179;54.350;10.102;2022-08-21T06:53:20;18.30;99.90
6293;DHT22;3179;54.350;10.102;2022-08-21T06:55:48;18.40;99.90
6293;DHT22;3179;54.350;10.102;2022-08-21T06:58:15;18.40;99.90
6293;DHT22;3179;54.350;10.102;2022-08-21T07:00:44;18.50;99.90
6293;DHT22;3179;54.350;10.102;2022-08-21T07:03:17;18.50;99.90
6293;DHT22;3179;54.350;10.102;2022-08-21T07:05:46;18.60;99.90
6293;DHT22;3179;54.350;10.102;2022-08-21T07:08:12;18.60;99.90
6293;DHT22;3179;54.350;10.102;2022-08-21T07:10:39;18.60;99.90
6293;DHT22;3179;54.350;10.102;2022-08-21T07:13:06;18.70;99.90
6293;DHT22;3179;54.350;10.102;2022-08-21T07:15:33;18.70;99.90
6293;DHT22;3179;54.350;10.102;2022-08-21T07:18:00;18.80;99.90
6293;DHT22;3179;54.350;10.102;2022-08-21T07:20:28;18.80;99.90
6293;DHT22;3179;54.350;10.102;2022-08-21T07:22:58;18.80;99.90
6293;DHT22;3179;54.350;10.102;2022-08-21T07:25:26;18.90;99.90
6293;DHT22;3179;54.350;10.102;2022-08-21T07:27:53;18.90;99.90
6293;DHT22;3179;54.350;10.102;2022-08-21T07:30:19;18.90;99.90
6293;DHT22;3179;54.350;10.102;2022-08-21T07:32:46;19.00;99.90
6293;DHT22;3179;54.350;10.102;2022-08-21T07:35:14;19.00;99.90
6293;DHT22;3179;54.350;10.102;2022-08-21T07:37:41;19.10;99.90
6293;DHT22;3179;54.350;10.102;2022-08-21T07:40:10;19.10;99.90
6293;DHT22;3179;54.350;10.102;2022-08-21T07:42:40;19.10;99.90
6293;DHT22;3179;54.350;10.102;2022-08-21T07:45:08;19.20;99.90
6293;DHT22;3179;54.350;10.102;2022-08-21T07:47:35;19.20;99.90
6293;DHT22;3179;54.350;10.102;2022-08-21T07:50:04;19.30;99.90
6293;DHT22;3179;54.350;10.102;2022-08-21T07:52:32;19.30;99.90
6293;DHT22;3179;54.350;10.102;2022-08-21T07:54:59;19.40;99.90
6293;DHT22;3179;54.350;10.102;2022-08-21T07:57:27;19.40;99.90
6293;DHT22;3179;54.350;10.102;2022-08-21T07:59:54;19.50;99.90
6293;DHT22;3179;54.350;10.102;2022-08-21T08:02:25;19.50;99.90
6293;DHT22;3179;54.350;10.102;2022-08-21T08:04:52;19.60;99.90
6293;DHT22;3179;54.350;10.102;2022-08-21T08:07:18;19.60;99.90
6293;DHT22;3179;54.350;10.102;2022-08-21T08:09:46;19.70;99.90
6293;DHT22;3179;54.350;10.102;2022-08-21T08:12:12;19.80;99.90
6293;DHT22;3179;54.350;10.102;2022-08-21T08:14:40;19.80;99.90
6293;DHT22;3179;54.350;10.102;2022-08-21T08:17:07;19.80;99.90
6293;DHT22;3179;54.350;10.102;2022-08-21T08:19:34;19.90;99.90
6293;DHT22;3179;54.350;10.102;2022-08-21T08:22:01;19.90;99.90
6293;DHT22;3179;54.350;10.102;2022-08-21T08:24:27;20.00;99.90
6293;DHT22;3179;54.350;10.102;2022-08-21T08:26:54;20.00;99.90
6293;DHT22;3179;54.350;10.102;2022-08-21T08:29:22;20.10;99.90
6293;DHT22;3179;54.350;10.102;2022-08-21T08:31:50;20.10;99.90
6293;DHT22;3179;54.350;10.102;2022-08-21T08:34:17;20.20;99.90
6293;DHT22;3179;54.350;10.102;2022-08-21T08:36:45;20.20;99.90
6293;DHT22;3179;54.350;10.102;2022-08-21T08:39:12;20.30;99.90
6293;DHT22;3179;54.350;10.102;2022-08-21T08:41:40;20.30;99.90
6293;DHT22;3179;54.350;10.102;2022-08-21T08:44:07;20.40;99.90
6293;DHT22;3179;54.350;10.102;2022-08-21T08:46:38;20.50;99.90
6293;DHT22;3179;54.350;10.102;2022-08-21T08:49:11;20.50;99.90
6293;DHT22;3179;54.350;10.102;2022-08-21T08:51:44;20.60;99.90
6293;DHT22;3179;54.350;10.102;2022-08-21T08:54:15;20.60;99.90
6293;DHT22;3179;54.350;10.102;2022-08-21T08:56:43;20.70;99.90
6293;DHT22;3179;54.350;10.102;2022-08-21T08:59:15;20.70;99.90
6293;DHT22;3179;54.350;10.102;2022-08-21T09:01:42;20.80;99.90
6293;DHT22;3179;54.350;10.102;2022-08-21T09:04:11;20.80;99.90
6293;DHT22;3179;54.350;10.102;2022-08-21T09:06:50;20.90;99.90
6293;DHT22;3179;54.350;10.102;2022-08-21T09:09:29;21.00;99.90
6293;DHT22;3179;54.350;10.102;2022-08-21T09:12:00;21.00;99.80
6293;DHT22;3179;54.350;10.102;2022-08-21T09:14:37;21.10;99.90
6293;DHT22;3179;54.350;10.102;2022-08-21T09:17:17;21.20;99.80
6293;DHT22;3179;54.350;10.102;2022-08-21T09:19:58;21.30;99.60
6293;DHT22;3179;54.350;10.102;2022-08-21T09:22:33;21.30;99.80
6293;DHT22;3179;54.350;10.102;2022-08-21T09:25:07;21.40;99.70
6293;DHT22;3179;54.350;10.102;2022-08-21T09:27:35;21.50;99.70
6293;DHT22;3179;54.350;10.102;2022-08-21T09:30:04;21.50;99.70
6293;DHT22;3179;54.350;10.102;2022-08-21T09:32:34;21.60;99.60
6293;DHT22;3179;54.350;10.102;2022-08-21T09:35:05;21.70;99.60
6293;DHT22;3179;54.350;10.102;2022-08-21T09:37:45;21.80;99.60
6293;DHT22;3179;54.350;10.102;2022-08-21T09:40:29;21.90;99.70
6293;DHT22;3179;54.350;10.102;2022-08-21T09:42:59;22.00;99.00
6293;DHT22;3179;54.350;10.102;2022-08-21T09:45:26;22.00;99.40
6293;DHT22;3179;54.350;10.102;2022-08-21T09:47:53;22.10;99.30
6293;DHT22;3179;54.350;10.102;2022-08-21T09:50:25;22.20;99.30
6293;DHT22;3179;54.350;10.102;2022-08-21T09:52:57;22.30;99.20
6293;DHT22;3179;54.350;10.102;2022-08-21T09:55:37;22.40;99.20
6293;DHT22;3179;54.350;10.102;2022-08-21T09:58:31;22.50;98.80
6293;DHT22;3179;54.350;10.102;2022-08-21T10:01:00;22.50;98.90
6293;DHT22;3179;54.350;10.102;2022-08-21T10:03:28;22.60;99.10
6293;DHT22;3179;54.350;10.102;2022-08-21T10:05:59;22.70;99.00
6293;DHT22;3179;54.350;10.102;2022-08-21T10:08:28;22.80;98.90
6293;DHT22;3179;54.350;10.102;2022-08-21T10:10:57;22.80;98.80
6293;DHT22;3179;54.350;10.102;2022-08-21T10:13:44;22.90;98.80
6293;DHT22;3179;54.350;10.102;2022-08-21T10:16:19;23.00;98.30
6293;DHT22;3179;54.350;10.102;2022-08-21T10:19:06;23.10;98.50
6293;DHT22;3179;54.350;10.102;2022-08-21T10:21:42;23.30;98.20
6293;DHT22;3179;54.350;10.102;2022-08-21T10:24:19;23.40;98.30
6293;DHT22;3179;54.350;10.102;2022-08-21T10:27:07;23.40;98.20
6293;DHT22;3179;54.350;10.102;2022-08-21T10:29:42;23.60;97.90
6293;DHT22;3179;54.350;10.102;2022-08-21T10:32:23;23.60;98.30
6293;DHT22;3179;54.350;10.102;2022-08-21T10:34:58;23.60;98.00
6293;DHT22;3179;54.350;10.102;2022-08-21T10:37:36;23.50;98.00
6293;DHT22;3179;54.350;10.102;2022-08-21T10:40:14;23.40;98.10
6293;DHT22;3179;54.350;10.102;2022-08-21T10:42:49;23.40;98.10
6293;DHT22;3179;54.350;10.102;2022-08-21T10:45:32;23.40;97.80
6293;DHT22;3179;54.350;10.102;2022-08-21T10:48:05;23.40;97.70
6293;DHT22;3179;54.350;10.102;2022-08-21T10:50:37;23.50;97.80
6293;DHT22;3179;54.350;10.102;2022-08-21T10:53:28;23.60;97.50
6293;DHT22;3179;54.350;10.102;2022-08-21T10:56:01;23.70;96.70
6293;DHT22;3179;54.350;10.102;2022-08-21T10:58:30;23.80;96.80
6293;DHT22;3179;54.350;10.102;2022-08-21T11:01:03;23.90;97.20
6293;DHT22;3179;54.350;10.102;2022-08-21T11:03:33;24.00;96.50
6293;DHT22;3179;54.350;10.102;2022-08-21T11:06:13;24.10;96.10
6293;DHT22;3179;54.350;10.102;2022-08-21T11:08:43;24.20;95.30
6293;DHT22;3179;54.350;10.102;2022-08-21T11:11:15;24.20;95.80
6293;DHT22;3179;54.350;10.102;2022-08-21T11:13:45;24.40;95.60
6293;DHT22;3179;54.350;10.102;2022-08-21T11:16:17;24.40;95.60
6293;DHT22;3179;54.350;10.102;2022-08-21T11:18:50;24.50;95.30
6293;DHT22;3179;54.350;10.102;2022-08-21T11:21:29;24.50;95.20
6293;DHT22;3179;54.350;10.102;2022-08-21T11:24:03;24.70;94.00
6293;DHT22;3179;54.350;10.102;2022-08-21T11:26:38;24.70;94.80
6293;DHT22;3179;54.350;10.102;2022-08-21T11:29:11;24.80;94.70
6293;DHT22;3179;54.350;10.102;2022-08-21T11:31:49;24.90;94.70
6293;DHT22;3179;54.350;10.102;2022-08-21T11:34:30;25.00;93.80
6293;DHT22;3179;54.350;10.102;2022-08-21T11:37:05;25.00;93.40
6293;DHT22;3179;54.350;10.102;2022-08-21T11:39:40;25.00;93.70
6293;DHT22;3179;54.350;10.102;2022-08-21T11:42:18;25.10;93.00
6293;DHT22;3179;54.350;10.102;2022-08-21T11:44:50;25.10;93.00
6293;DHT22;3179;54.350;10.102;2022-08-21T11:47:27;25.30;93.00
6293;DHT22;3179;54.350;10.102;2022-08-21T11:50:05;25.40;93.10
6293;DHT22;3179;54.350;10.102;2022-08-21T11:52:38;25.40;91.70
6293;DHT22;3179;54.350;10.102;2022-08-21T11:55:13;25.50;92.30
6293;DHT22;3179;54.350;10.102;2022-08-21T11:57:49;25.50;91.90
6293;DHT22;3179;54.350;10.102;2022-08-21T12:00:20;25.70;92.50
6293;DHT22;3179;54.350;10.102;2022-08-21T12:02:52;25.80;92.30
6293;DHT22;3179;54.350;10.102;2022-08-21T12:05:26;25.80;92.40
6293;DHT22;3179;54.350;10.102;2022-08-21T12:08:02;25.80;92.10
6293;DHT22;3179;54.350;10.102;2022-08-21T12:10:35;25.80;91.70
6293;DHT22;3179;54.350;10.102;2022-08-21T12:13:10;25.90;91.50
6293;DHT22;3179;54.350;10.102;2022-08-21T12:15:39;25.90;91.10
6293;DHT22;3179;54.350;10.102;2022-08-21T12:18:18;25.90;91.90
6293;DHT22;3179;54.350;10.102;2022-08-21T12:20:58;25.90;91.60
6293;DHT22;3179;54.350;10.102;2022-08-21T12:23:29;26.00;90.10
6293;DHT22;3179;54.350;10.102;2022-08-21T12:26:24;26.10;91.40
6293;DHT22;3179;54.350;10.102;2022-08-21T12:29:12;26.20;90.00
6293;DHT22;3179;54.350;10.102;2022-08-21T12:32:17;26.20;88.30
6293;DHT22;3179;54.350;10.102;2022-08-21T12:34:50;26.20;88.40
6293;DHT22;3179;54.350;10.102;2022-08-21T12:37:22;26.00;91.30
6293;DHT22;3179;54.350;10.102;2022-08-21T12:39:52;25.70;90.60
6293;DHT22;3179;54.350;10.102;2022-08-21T12:42:27;25.40;91.00
6293;DHT22;3179;54.350;10.102;2022-08-21T12:45:00;25.30;90.90
6293;DHT22;3179;54.350;10.102;2022-08-21T12:47:32;25.40;90.90
6293;DHT22;3179;54.350;10.102;2022-08-21T12:50:04;25.50;90.90
6293;DHT22;3179;54.350;10.102;2022-08-21T12:52:35;25.70;90.40
6293;DHT22;3179;54.350;10.102;2022-08-21T12:55:04;25.80;90.70
6293;DHT22;3179;54.350;10.102;2022-08-21T12:57:32;25.90;90.70
6293;DHT22;3179;54.350;10.102;2022-08-21T13:00:05;26.00;90.60
6293;DHT22;3179;54.350;10.102;2022-08-21T13:02:35;26.20;90.10
6293;DHT22;3179;54.350;10.102;2022-08-21T13:05:05;26.20;90.20
6293;DHT22;3179;54.350;10.102;2022-08-21T13:07:35;26.30;90.30
6293;DHT22;3179;54.350;10.102;2022-08-21T13:10:05;26.40;90.40
6293;DHT22;3179;54.350;10.102;2022-08-21T13:12:41;26.50;90.10
6293;DHT22;3179;54.350;10.102;2022-08-21T13:15:09;26.60;89.40
6293;DHT22;3179;54.350;10.102;2022-08-21T13:17:39;26.50;90.00
6293;DHT22;3179;54.350;10.102;2022-08-21T13:20:08;26.50;89.70
6293;DHT22;3179;54.350;10.102;2022-08-21T13:22:41;26.30;90.10
6293;DHT22;3179;54.350;10.102;2022-08-21T13:25:10;26.20;89.90
6293;DHT22;3179;54.350;10.102;2022-08-21T13:27:40;26.10;90.30
6293;DHT22;3179;54.350;10.102;2022-08-21T13:30:11;26.30;90.40
6293;DHT22;3179;54.350;10.102;2022-08-21T13:32:42;26.40;90.40
6293;DHT22;3179;54.350;10.102;2022-08-21T13:35:22;26.60;90.50
6293;DHT22;3179;54.350;10.102;2022-08-21T13:37:51;26.60;90.00
6293;DHT22;3179;54.350;10.102;2022-08-21T13:40:24;26.40;90.70
6293;DHT22;3179;54.350;10.102;2022-08-21T13:42:52;26.20;90.70
6293;DHT22;3179;54.350;10.102;2022-08-21T13:45:25;26.10;90.90
6293;DHT22;3179;54.350;10.102;2022-08-21T13:47:53;26.20;91.00
6293;DHT22;3179;54.350;10.102;2022-08-21T13:50:23;26.40;90.90
6293;DHT22;3179;54.350;10.102;2022-08-21T13:52:59;26.80;90.70
6293;DHT22;3179;54.350;10.102;2022-08-21T13:55:35;27.30;89.80
6293;DHT22;3179;54.350;10.102;2022-08-21T13:58:04;27.90;89.10
6293;DHT22;3179;54.350;10.102;2022-08-21T14:00:33;28.30;89.70
6293;DHT22;3179;54.350;10.102;2022-08-21T14:03:06;28.60;90.00
6293;DHT22;3179;54.350;10.102;2022-08-21T14:05:36;28.90;88.10
6293;DHT22;3179;54.350;10.102;2022-08-21T14:08:07;29.00;88.80
6293;DHT22;3179;54.350;10.102;2022-08-21T14:10:36;29.20;88.30
6293;DHT22;3179;54.350;10.102;2022-08-21T14:13:27;29.30;88.80
6293;DHT22;3179;54.350;10.102;2022-08-21T14:15:58;29.30;85.20
6293;DHT22;3179;54.350;10.102;2022-08-21T14:18:26;29.10;89.00
6293;DHT22;3179;54.350;10.102;2022-08-21T14:21:04;29.00;89.30
6293;DHT22;3179;54.350;10.102;2022-08-21T14:23:32;28.90;85.90
6293;DHT22;3179;54.350;10.102;2022-08-21T14:26:00;28.80;89.70
6293;DHT22;3179;54.350;10.102;2022-08-21T14:28:32;28.80;89.50
6293;DHT22;3179;54.350;10.102;2022-08-21T14:31:11;28.40;88.20
6293;DHT22;3179;54.350;10.102;2022-08-21T14:33:38;28.00;87.00
6293;DHT22;3179;54.350;10.102;2022-08-21T14:36:06;27.60;89.30
6293;DHT22;3179;54.350;10.102;2022-08-21T14:38:35;27.40;89.60
6293;DHT22;3179;54.350;10.102;2022-08-21T14:41:05;27.30;89.40
6293;DHT22;3179;54.350;10.102;2022-08-21T14:43:36;27.40;89.40
6293;DHT22;3179;54.350;10.102;2022-08-21T14:46:03;27.40;89.40
6293;DHT22;3179;54.350;10.102;2022-08-21T14:48:30;27.10;89.60
6293;DHT22;3179;54.350;10.102;2022-08-21T14:50:57;26.90;89.50
6293;DHT22;3179;54.350;10.102;2022-08-21T14:53:26;26.70;89.90
6293;DHT22;3179;54.350;10.102;2022-08-21T14:55:53;26.60;90.30
6293;DHT22;3179;54.350;10.102;2022-08-21T14:58:36;26.40;90.30
6293;DHT22;3179;54.350;10.102;2022-08-21T15:01:05;26.30;90.60
6293;DHT22;3179;54.350;10.102;2022-08-21T15:03:33;26.10;90.60
6293;DHT22;3179;54.350;10.102;2022-08-21T15:06:03;26.00;90.90
6293;DHT22;3179;54.350;10.102;2022-08-21T15:08:30;26.00;90.90
6293;DHT22;3179;54.350;10.102;2022-08-21T15:10:58;26.00;91.00
6293;DHT22;3179;54.350;10.102;2022-08-21T15:13:25;26.00;91.20
6293;DHT22;3179;54.350;10.102;2022-08-21T15:15:54;26.20;91.20
6293;DHT22;3179;54.350;10.102;2022-08-21T15:18:22;26.30;91.30
6293;DHT22;3179;54.350;10.102;2022-08-21T15:20:50;26.30;91.10
6293;DHT22;3179;54.350;10.102;2022-08-21T15:23:17;26.30;91.10
6293;DHT22;3179;54.350;10.102;2022-08-21T15:25:46;26.30;91.20
6293;DHT22;3179;54.350;10.102;2022-08-21T15:28:14;26.20;91.30
6293;DHT22;3179;54.350;10.102;2022-08-21T15:30:43;26.20;91.30
6293;DHT22;3179;54.350;10.102;2022-08-21T15:33:11;26.20;91.20
6293;DHT22;3179;54.350;10.102;2022-08-21T15:35:39;26.10;91.10
6293;DHT22;3179;54.350;10.102;2022-08-21T15:38:06;26.10;91.20
6293;DHT22;3179;54.350;10.102;2022-08-21T15:40:34;26.10;91.40
6293;DHT22;3179;54.350;10.102;2022-08-21T15:43:03;26.00;91.40
6293;DHT22;3179;54.350;10.102;2022-08-21T15:45:31;26.00;91.60
6293;DHT22;3179;54.350;10.102;2022-08-21T15:47:59;25.90;91.80
6293;DHT22;3179;54.350;10.102;2022-08-21T15:50:28;25.80;92.20
6293;DHT22;3179;54.350;10.102;2022-08-21T15:52:57;25.80;91.90
6293;DHT22;3179;54.350;10.102;2022-08-21T15:55:24;25.80;92.00
6293;DHT22;3179;54.350;10.102;2022-08-21T15:57:52;25.80;92.20
6293;DHT22;3179;54.350;10.102;2022-08-21T16:00:22;25.80;92.40
6293;DHT22;3179;54.350;10.102;2022-08-21T16:02:52;25.80;92.30